Time;durP1;ratioP1;P1;durP2;ratioP2;P2;SDS_P1;SDS_P2;PMS_P1;PMS_P2;Temp;Humidity;BMP_temperature;BMP_pressure;BME280_temperature;BME280_humidity;BME280_pressure;Samples;Min_cycle;Max_cycle;Signal;HPM_P1;HPM_P2
2023/11/21 00:00:28;;;;;;;72.83;31.00;;;;;8.40;100561.00;;;;10316723;28;20224;-73
2023/11/21 00:05:29;;;;;;;79.87;31.87;;;;;8.40;100573.00;;;;10324053;28;20227;-73
2023/11/21 00:10:30;;;;;;;107.93;35.40;;;;;8.40;100573.00;;;;10315524;28;20254;-74
2023/11/21 00:15:31;;;;;;;86.63;32.47;;;;;8.40;100577.00;;;;10332028;28;20228;-74
2023/11/21 00:20:32;;;;;;;88.87;32.53;;;;;8.40;100573.00;;;;10312414;28;20302;-74
2023/11/21 00:25:33;;;;;;;85.50;33.17;;;;;8.40;100577.00;;;;10326334;28;20316;-74
2023/11/21 00:30:35;;;;;;;88.57;34.47;;;;;8.40;100580.00;;;;10312403;28;20306;-73
2023/11/21 00:35:37;;;;;;;88.20;31.67;;;;;8.30;100589.00;;;;10314545;28;20662;-73
2023/11/21 00:40:38;;;;;;;79.73;30.80;;;;;8.30;100596.00;;;;10312282;28;20223;-75
2023/11/21 00:45:40;;;;;;;81.67;32.27;;;;;8.20;100594.00;;;;10326084;28;20716;-73
2023/11/21 00:50:41;;;;;;;65.43;28.67;;;;;8.10;100600.00;;;;10309921;28;20231;-74
2023/11/21 00:55:42;;;;;;;77.63;29.53;;;;;7.90;100597.00;;;;10322319;28;20232;-73
2023/11/21 01:00:43;;;;;;;89.80;31.87;;;;;7.80;100594.00;;;;10315891;28;20216;-74
2023/11/21 01:05:46;;;;;;;87.33;31.37;;;;;7.90;100600.00;;;;10308253;28;20244;-73
2023/11/21 01:10:47;;;;;;;77.07;30.37;;;;;8.00;100612.00;;;;10318264;28;20224;-73
2023/11/21 01:15:49;;;;;;;80.13;31.90;;;;;8.00;100616.00;;;;10318362;28;20307;-74
2023/11/21 01:20:50;;;;;;;116.07;36.43;;;;;8.00;100616.00;;;;10310508;28;20223;-74
2023/11/21 01:25:51;;;;;;;89.53;31.87;;;;;8.10;100617.00;;;;10310071;28;20231;-74
2023/11/21 01:30:56;;;;;;;80.23;30.73;;;;;8.10;100622.00;;;;10313950;28;20990;-74
2023/11/21 01:35:57;;;;;;;79.10;31.93;;;;;8.20;100635.00;;;;10298254;28;20227;-73
2023/11/21 01:41:00;;;;;;;74.90;30.23;;;;;8.20;100631.00;;;;10291435;28;20216;-74
2023/11/21 01:46:02;;;;;;;80.30;30.73;;;;;8.30;100633.00;;;;10329338;28;20227;-74
2023/11/21 01:51:03;;;;;;;82.30;33.40;;;;;8.30;100633.00;;;;10304156;28;20894;-75
2023/11/21 01:56:07;;;;;;;100.90;33.37;;;;;8.30;100642.00;;;;10297323;28;20220;-73
2023/11/21 02:01:14;;;;;;;89.90;32.23;;;;;8.30;100634.00;;;;10316645;28;20228;-73
2023/11/21 02:06:15;;;;;;;81.63;31.17;;;;;8.40;100632.00;;;;10314505;28;20231;-73
2023/11/21 02:11:16;;;;;;;83.83;31.77;;;;;8.40;100630.00;;;;10320281;28;20227;-73
2023/11/21 02:16:17;;;;;;;79.57;31.97;;;;;8.40;100638.00;;;;10319485;28;20822;-74
2023/11/21 02:21:19;;;;;;;79.37;34.63;;;;;8.40;100648.00;;;;10309550;28;20721;-73
2023/11/21 02:26:25;;;;;;;73.77;31.03;;;;;8.40;100651.00;;;;10311755;28;20221;-72
2023/11/21 02:31:27;;;;;;;73.87;33.20;;;;;8.40;100653.00;;;;10326222;28;20797;-73
2023/11/21 02:36:29;;;;;;;71.23;32.13;;;;;8.40;100655.00;;;;10311874;28;20262;-72
2023/11/21 02:41:30;;;;;;;65.43;30.90;;;;;8.40;100655.00;;;;10315289;28;20311;-74
2023/11/21 02:46:33;;;;;;;76.57;31.63;;;;;8.50;100660.00;;;;10321265;28;20227;-74
2023/11/21 02:51:34;;;;;;;76.47;31.43;;;;;8.50;100666.00;;;;10294569;28;20256;-73
2023/11/21 02:56:35;;;;;;;69.60;30.90;;;;;8.50;100668.00;;;;10297346;28;20314;-74
2023/11/21 03:01:37;;;;;;;70.87;31.17;;;;;8.50;100656.00;;;;10316158;28;20228;-74
2023/11/21 03:06:40;;;;;;;65.30;30.63;;;;;8.50;100661.00;;;;10310250;28;20235;-73
2023/11/21 03:11:41;;;;;;;62.83;27.73;;;;;8.50;100667.00;;;;10307589;28;20334;-74
2023/11/21 03:16:57;;;;;;;71.17;28.73;;;;;8.60;100667.00;;;;10317812;28;20227;-74
2023/11/21 03:21:58;;;;;;;69.27;29.33;;;;;8.60;100671.00;;;;10313657;28;20231;-74
2023/11/21 03:27:00;;;;;;;53.73;26.87;;;;;8.60;100673.00;;;;10302872;28;20256;-74
2023/11/21 03:32:01;;;;;;;59.60;27.37;;;;;8.60;100675.00;;;;10320541;28;20302;-74
2023/11/21 03:37:03;;;;;;;68.50;27.23;;;;;8.60;100678.00;;;;10331219;28;21507;-74
2023/11/21 03:42:04;;;;;;;64.27;27.07;;;;;8.60;100679.00;;;;10298892;28;20992;-74
2023/11/21 03:47:05;;;;;;;63.73;28.07;;;;;8.70;100690.00;;;;10312956;28;20511;-74
2023/11/21 03:52:09;;;;;;;66.73;26.10;;;;;8.70;100691.00;;;;10309603;28;20236;-74
2023/11/21 03:57:11;;;;;;;54.50;25.33;;;;;8.70;100695.00;;;;10312148;28;20306;-73
2023/11/21 04:02:12;;;;;;;51.37;25.00;;;;;8.70;100699.00;;;;10292249;28;20343;-74
2023/11/21 04:07:13;;;;;;;53.23;24.57;;;;;8.70;100696.00;;;;10313762;28;20658;-74
2023/11/21 04:12:14;;;;;;;63.90;24.43;;;;;8.70;100708.00;;;;10302284;28;20585;-74
2023/11/21 04:17:19;;;;;;;50.13;24.30;;;;;8.70;100714.00;;;;10319580;28;20306;-74
2023/11/21 04:22:20;;;;;;;49.50;23.27;;;;;8.70;100726.00;;;;10323242;28;20220;-74
2023/11/21 04:27:21;;;;;;;49.60;24.37;;;;;8.70;100732.00;;;;10312668;28;20336;-74
2023/11/21 04:32:22;;;;;;;49.00;23.70;;;;;8.70;100735.00;;;;10282278;28;20251;-75
2023/11/21 04:37:24;;;;;;;62.10;23.90;;;;;8.70;100727.00;;;;10307039;28;20255;-74
2023/11/21 04:42:25;;;;;;;57.80;23.63;;;;;8.70;100736.00;;;;10321478;28;20274;-75
2023/11/21 04:47:26;;;;;;;53.93;24.53;;;;;8.80;100750.00;;;;10316822;28;20254;-74
2023/11/21 04:52:27;;;;;;;48.87;23.43;;;;;8.80;100759.00;;;;10317711;28;20248;-75
2023/11/21 04:57:29;;;;;;;61.67;23.27;;;;;8.80;100754.00;;;;10318902;28;20224;-74
2023/11/21 05:02:31;;;;;;;58.17;25.97;;;;;8.80;100767.00;;;;10313678;28;20233;-73
2023/11/21 05:07:37;;;;;;;55.80;26.00;;;;;8.80;100762.00;;;;10314095;28;20299;-72
2023/11/21 05:12:39;;;;;;;68.47;26.90;;;;;8.80;100767.00;;;;10322476;28;20227;-74
2023/11/21 05:17:49;;;;;;;56.43;26.40;;;;;8.90;100778.00;;;;10312045;28;20220;-73
2023/11/21 05:22:50;;;;;;;58.07;27.57;;;;;8.90;100783.00;;;;10312224;28;20243;-73
2023/11/21 05:27:53;;;;;;;61.07;27.43;;;;;8.90;100785.00;;;;10314159;28;20236;-74
2023/11/21 05:32:54;;;;;;;56.47;28.47;;;;;8.90;100784.00;;;;10297862;28;20235;-73
2023/11/21 05:37:55;;;;;;;54.27;28.73;;;;;8.90;100793.00;;;;10317732;28;20232;-75
2023/11/21 05:42:57;;;;;;;54.00;28.27;;;;;8.90;100800.00;;;;10327934;28;20247;-75
2023/11/21 05:47:58;;;;;;;73.30;30.17;;;;;8.90;100805.00;;;;10324126;28;20225;-75
2023/11/21 05:53:00;;;;;;;119.73;33.63;;;;;8.90;100816.00;;;;10297498;28;20232;-75
2023/11/21 05:58:02;;;;;;;69.87;31.47;;;;;8.90;100823.00;;;;10302048;28;20302;-75
2023/11/21 06:03:06;;;;;;;62.40;29.10;;;;;8.90;100827.00;;;;10317472;28;20592;-75
2023/11/21 06:08:07;;;;;;;57.97;30.47;;;;;9.00;100844.00;;;;10306439;28;20663;-75
2023/11/21 06:13:10;;;;;;;62.90;30.57;;;;;9.00;100834.00;;;;10307592;28;20231;-75
2023/11/21 06:18:11;;;;;;;88.10;44.50;;;;;9.00;100846.00;;;;10316827;28;20231;-74
2023/11/21 06:23:16;;;;;;;108.57;52.50;;;;;9.00;100848.00;;;;10291735;28;20216;-74
2023/11/21 06:28:17;;;;;;;65.67;35.80;;;;;9.00;100835.00;;;;10315079;28;20313;-74
2023/11/21 06:33:19;;;;;;;80.73;35.23;;;;;9.00;100857.00;;;;10315268;28;20357;-75
2023/11/21 06:38:20;;;;;;;125.17;71.57;;;;;9.00;100871.00;;;;10313935;28;20222;-74
2023/11/21 06:43:21;;;;;;;97.57;47.07;;;;;9.00;100879.00;;;;10317562;28;20303;-74
2023/11/21 06:48:23;;;;;;;103.13;46.23;;;;;9.00;100888.00;;;;10312967;28;20219;-75
2023/11/21 06:53:24;;;;;;;81.83;41.87;;;;;9.00;100886.00;;;;10309599;28;20228;-75
2023/11/21 06:58:25;;;;;;;86.27;42.97;;;;;9.00;100890.00;;;;10309443;28;20255;-74
2023/11/21 07:03:26;;;;;;;75.97;36.47;;;;;9.10;100891.00;;;;10309856;28;20255;-74
2023/11/21 07:08:28;;;;;;;76.87;42.57;;;;;9.10;100898.00;;;;10298816;28;20224;-75
2023/11/21 07:13:29;;;;;;;84.20;45.40;;;;;9.10;100913.00;;;;10309956;28;20223;-74
2023/11/21 07:18:30;;;;;;;113.07;44.90;;;;;9.10;100919.00;;;;10322866;28;20243;-74
2023/11/21 07:23:31;;;;;;;90.00;44.83;;;;;9.20;100937.00;;;;10318170;28;20270;-74
2023/11/21 07:28:32;;;;;;;100.20;49.97;;;;;9.20;100945.00;;;;10311328;28;20339;-75
2023/11/21 07:33:34;;;;;;;106.57;50.77;;;;;9.30;100953.00;;;;10304313;28;20232;-75
2023/11/21 07:38:35;;;;;;;90.77;40.60;;;;;9.30;100957.00;;;;10316708;28;20243;-75
2023/11/21 07:43:37;;;;;;;77.13;36.63;;;;;9.30;100966.00;;;;10314465;28;20227;-74
2023/11/21 07:48:39;;;;;;;88.73;39.87;;;;;9.30;100954.00;;;;10317417;28;20592;-75
2023/11/21 07:53:40;;;;;;;74.37;37.50;;;;;9.40;100966.00;;;;10308616;28;20288;-75
2023/11/21 07:58:41;;;;;;;88.17;42.93;;;;;9.50;100980.00;;;;10315927;28;20220;-74
2023/11/21 08:03:44;;;;;;;74.83;38.00;;;;;9.50;100987.00;;;;10314285;28;20216;-74
2023/11/21 08:08:45;;;;;;;72.73;35.60;;;;;9.50;100992.00;;;;10320195;28;20239;-74
2023/11/21 08:13:46;;;;;;;85.93;37.77;;;;;9.60;100999.00;;;;10304644;28;20226;-74
2023/11/21 08:18:47;;;;;;;85.87;38.30;;;;;9.60;101003.00;;;;10315757;28;20228;-74
2023/11/21 08:23:53;;;;;;;78.10;36.07;;;;;9.70;101007.00;;;;10324143;28;20220;-74
2023/11/21 08:28:56;;;;;;;83.33;36.13;;;;;9.80;101017.00;;;;10304789;28;20867;-74
2023/11/21 08:33:57;;;;;;;92.57;40.30;;;;;9.90;101015.00;;;;10308989;28;20227;-74
2023/11/21 08:38:58;;;;;;;75.37;35.60;;;;;10.00;101014.00;;;;10324582;28;20226;-74
2023/11/21 08:44:00;;;;;;;89.43;39.50;;;;;10.20;101007.00;;;;10315377;28;20984;-74
2023/11/21 08:49:02;;;;;;;86.87;37.97;;;;;10.20;101014.00;;;;10326125;28;20778;-74
2023/11/21 08:54:07;;;;;;;80.97;37.90;;;;;10.30;101024.00;;;;10323686;28;20251;-74
2023/11/21 08:59:08;;;;;;;86.53;36.80;;;;;10.30;101022.00;;;;10318774;28;20226;-74
2023/11/21 09:04:09;;;;;;;85.90;35.93;;;;;10.40;101025.00;;;;10297487;28;20228;-74
2023/11/21 09:09:10;;;;;;;84.27;35.17;;;;;10.20;101039.00;;;;10325058;28;20893;-74
2023/11/21 09:14:14;;;;;;;96.93;35.53;;;;;10.00;101050.00;;;;10293543;28;20948;-74
2023/11/21 09:19:15;;;;;;;89.43;33.13;;;;;9.90;101068.00;;;;10314380;28;20228;-74
2023/11/21 09:24:16;;;;;;;114.20;38.73;;;;;9.90;101063.00;;;;10313988;28;20227;-73
2023/11/21 09:29:18;;;;;;;113.43;36.03;;;;;9.90;101077.00;;;;10313643;28;20223;-74
2023/11/21 09:34:20;;;;;;;143.27;41.80;;;;;10.10;101075.00;;;;10314063;28;20304;-74
2023/11/21 09:39:21;;;;;;;135.23;39.20;;;;;10.40;101082.00;;;;10316019;28;20216;-74
2023/11/21 09:44:36;;;;;;;125.90;38.63;;;;;10.40;101094.00;;;;10331517;28;20224;-74
2023/11/21 09:49:38;;;;;;;104.27;34.07;;;;;10.20;101099.00;;;;10318894;28;20219;-74
2023/11/21 09:54:40;;;;;;;96.57;34.33;;;;;10.10;101108.00;;;;10306030;28;20244;-74
2023/11/21 09:59:43;;;;;;;76.00;27.60;;;;;10.00;101119.00;;;;10304452;28;20244;-73
2023/11/21 10:04:45;;;;;;;72.23;30.53;;;;;10.10;101129.00;;;;10309495;28;20878;-74
2023/11/21 10:09:48;;;;;;;75.87;33.30;;;;;10.30;101125.00;;;;10314599;28;20232;-74
2023/11/21 10:14:52;;;;;;;77.40;31.60;;;;;10.40;101134.00;;;;10303477;28;20281;-74
2023/11/21 10:19:55;;;;;;;68.00;31.63;;;;;10.60;101144.00;;;;10289846;28;20234;-74
2023/11/21 10:24:56;;;;;;;71.97;31.40;;;;;10.70;101146.00;;;;10312259;28;20621;-74
2023/11/21 10:29:58;;;;;;;78.50;32.27;;;;;10.90;101140.00;;;;10311349;28;20250;-74
2023/11/21 10:35:06;;;;;;;79.40;32.77;;;;;11.30;101143.00;;;;10309489;28;20237;-73
2023/11/21 10:40:11;;;;;;;69.43;30.47;;;;;11.40;101149.00;;;;10304765;28;20317;-74
2023/11/21 10:45:14;;;;;;;63.53;28.00;;;;;11.30;101150.00;;;;10313509;28;20227;-74
2023/11/21 10:50:18;;;;;;;67.63;28.63;;;;;11.20;101160.00;;;;10308379;28;20269;-74
2023/11/21 10:55:21;;;;;;;63.77;27.63;;;;;11.10;101155.00;;;;10305495;28;20682;-74
2023/11/21 11:00:23;;;;;;;63.70;26.23;;;;;11.10;101158.00;;;;10312516;28;20773;-73
2023/11/21 11:05:32;;;;;;;69.30;29.03;;;;;11.40;101153.00;;;;10310092;28;20222;-74
2023/11/21 11:10:33;;;;;;;71.33;29.80;;;;;11.50;101152.00;;;;10311808;28;20236;-74
2023/11/21 11:15:35;;;;;;;73.47;30.87;;;;;11.50;101160.00;;;;10307093;28;20305;-74
2023/11/21 11:20:37;;;;;;;75.78;32.03;;;;;11.60;101165.00;;;;10308707;28;20246;-73
2023/11/21 11:26:10;;;;;;;78.13;31.57;;;;;11.70;101172.00;;;;10312972;28;20261;-76
2023/11/21 11:31:40;;;;;;;81.55;32.53;;;;;11.80;101177.00;;;;10304036;28;20232;-76
2023/11/21 11:36:52;;;;;;;67.07;28.77;;;;;12.00;101173.00;;;;10308423;28;20231;-76
2023/11/21 11:41:53;;;;;;;60.53;27.40;;;;;12.00;101172.00;;;;10309945;28;20231;-76
2023/11/21 11:46:56;;;;;;;54.90;24.10;;;;;12.00;101179.00;;;;10313030;28;20906;-76
2023/11/21 11:52:31;;;;;;;44.47;19.02;;;;;11.70;101183.00;;;;10344082;28;20279;-76
2023/11/21 11:57:34;;;;;;;43.67;20.50;;;;;11.60;101179.00;;;;10289685;28;20228;-76
2023/11/21 12:02:37;;;;;;;38.75;20.52;;;;;11.30;101183.00;;;;10320063;28;20211;-77
2023/11/21 12:07:54;;;;;;;36.45;18.13;;;;;11.10;101184.00;;;;10317588;28;20216;-76
2023/11/21 12:12:58;;;;;;;39.83;19.80;;;;;10.90;101200.00;;;;10314507;28;20259;-76
2023/11/21 12:17:59;;;;;;;44.93;22.43;;;;;10.90;101208.00;;;;10314950;28;20227;-76
2023/11/21 12:23:01;;;;;;;47.00;23.63;;;;;11.00;101200.00;;;;10315785;28;20650;-77
2023/11/21 12:28:03;;;;;;;41.23;19.43;;;;;11.40;101195.00;;;;10318466;28;20609;-76
2023/11/21 12:33:06;;;;;;;29.23;14.47;;;;;11.60;101203.00;;;;10327392;28;20220;-76
2023/11/21 12:38:09;;;;;;;24.80;13.23;;;;;11.70;101200.00;;;;10320293;28;20224;-77
2023/11/21 12:43:10;;;;;;;22.52;13.50;;;;;12.00;101204.00;;;;10332959;28;20223;-75
2023/11/21 12:48:12;;;;;;;18.33;10.55;;;;;11.90;101209.00;;;;10323046;28;20243;-76
2023/11/21 12:53:16;;;;;;;12.93;9.35;;;;;11.70;101224.00;;;;10299209;28;20331;-76
2023/11/21 12:58:20;;;;;;;15.63;10.40;;;;;11.50;101224.00;;;;10300991;28;20224;-77
2023/11/21 13:03:25;;;;;;;16.07;9.77;;;;;11.10;101239.00;;;;10304401;28;20220;-77
2023/11/21 13:08:28;;;;;;;10.87;6.93;;;;;11.00;101251.00;;;;10339953;28;20315;-75
2023/11/21 13:13:29;;;;;;;10.80;7.43;;;;;11.30;101249.00;;;;10313338;28;20236;-76
2023/11/21 13:18:31;;;;;;;9.93;6.83;;;;;11.40;101250.00;;;;10318420;28;20212;-76
2023/11/21 13:23:35;;;;;;;9.17;6.47;;;;;11.50;101247.00;;;;10314644;28;20248;-75
2023/11/21 13:28:37;;;;;;;8.00;6.63;;;;;11.60;101246.00;;;;10331406;28;20227;-76
2023/11/21 13:33:40;;;;;;;11.60;7.67;;;;;11.40;101251.00;;;;10317658;28;20226;-75
2023/11/21 13:38:42;;;;;;;10.40;7.43;;;;;11.20;101260.00;;;;10317182;28;20823;-76
2023/11/21 13:43:50;;;;;;;8.50;7.20;;;;;11.10;101268.00;;;;10319925;28;20302;-76
2023/11/21 13:48:55;;;;;;;8.63;6.17;;;;;11.20;101272.00;;;;10311423;28;20243;-72
2023/11/21 13:53:57;;;;;;;9.03;5.57;;;;;11.20;101274.00;;;;10320183;28;20224;-73
2023/11/21 13:59:03;;;;;;;7.20;5.43;;;;;11.10;101280.00;;;;10311467;28;20281;-73
2023/11/21 14:09:24;;;;;;;5.27;4.63;;;;;11.20;101279.00;;;;10322902;28;20311;-71
2023/11/21 14:14:27;;;;;;;6.17;4.10;;;;;11.10;101300.00;;;;10295357;28;20216;-72
2023/11/21 14:19:32;;;;;;;9.20;4.97;;;;;11.00;101303.00;;;;10311996;28;20216;-72
2023/11/21 14:24:33;;;;;;;6.47;4.67;;;;;11.00;101302.00;;;;10321864;28;20327;-71
2023/11/21 14:29:39;;;;;;;6.07;4.50;;;;;10.90;101303.00;;;;10311769;28;20278;-72
2023/11/21 14:34:42;;;;;;;6.07;5.03;;;;;10.70;101318.00;;;;10311178;28;20230;-72
2023/11/21 14:39:47;;;;;;;7.97;4.93;;;;;10.60;101329.00;;;;10309019;28;20219;-71
2023/11/21 14:44:48;;;;;;;9.50;5.67;;;;;10.50;101337.00;;;;10312151;28;20231;-72
2023/11/21 14:49:52;;;;;;;9.30;5.73;;;;;10.50;101350.00;;;;10308980;28;20601;-71
2023/11/21 14:55:18;;;;;;;10.07;7.27;;;;;10.40;101355.00;;;;10313337;28;20243;-72
2023/11/21 15:00:43;;;;;;;14.90;7.90;;;;;10.40;101355.00;;;;10302056;28;20239;-72
2023/11/21 15:05:40;;;;;;;12.20;8.47;;;;;10.30;101369.00;;;;10309889;28;20233;-72
2023/11/21 15:10:48;;;;;;;11.20;7.97;;;;;10.30;101377.00;;;;10313258;28;20228;-72
2023/11/21 15:15:50;;;;;;;20.00;11.70;;;;;10.30;101378.00;;;;10314954;28;20302;-72
2023/11/21 15:20:54;;;;;;;18.63;9.37;;;;;10.30;101390.00;;;;10315059;28;20255;-72
2023/11/21 15:25:55;;;;;;;12.47;7.70;;;;;10.20;101399.00;;;;10306595;28;20222;-71
2023/11/21 15:30:57;;;;;;;14.97;7.47;;;;;10.20;101411.00;;;;10303393;28;20700;-71
2023/11/21 15:35:58;;;;;;;14.37;8.57;;;;;10.10;101409.00;;;;10311115;28;20286;-71
2023/11/21 15:40:59;;;;;;;13.30;8.90;;;;;10.10;101422.00;;;;10320980;28;20232;-71
2023/11/21 15:46:06;;;;;;;14.83;8.97;;;;;10.10;101434.00;;;;10316884;28;20219;-72
2023/11/21 15:51:12;;;;;;;17.23;9.50;;;;;10.10;101443.00;;;;10320428;28;20224;-72
2023/11/21 15:56:13;;;;;;;19.50;13.63;;;;;10.10;101448.00;;;;10328294;28;20282;-72
2023/11/21 16:01:15;;;;;;;18.67;10.57;;;;;10.00;101457.00;;;;10312643;28;20246;-73
2023/11/21 16:06:16;;;;;;;17.83;11.30;;;;;10.00;101473.00;;;;10303992;28;20250;-75
2023/11/21 16:11:17;;;;;;;20.23;12.47;;;;;10.00;101468.00;;;;10317159;28;21149;-75
2023/11/21 16:16:21;;;;;;;19.27;11.67;;;;;10.00;101480.00;;;;10298849;28;20224;-74
2023/11/21 16:21:22;;;;;;;19.10;12.23;;;;;10.00;101490.00;;;;10324359;28;20224;-74
2023/11/21 16:26:23;;;;;;;21.57;12.93;;;;;9.90;101491.00;;;;10310884;28;20303;-74
2023/11/21 16:31:24;;;;;;;21.67;12.33;;;;;9.80;101519.00;;;;10326638;28;20223;-74
2023/11/21 16:36:26;;;;;;;19.33;11.60;;;;;9.80;101523.00;;;;10314801;28;20768;-74
2023/11/21 16:41:28;;;;;;;24.97;12.87;;;;;9.80;101524.00;;;;10315477;28;20306;-75
2023/11/21 16:46:29;;;;;;;22.43;13.17;;;;;9.70;101524.00;;;;10302979;28;20258;-74
2023/11/21 16:51:31;;;;;;;20.93;12.73;;;;;9.70;101536.00;;;;10313406;28;20231;-74
2023/11/21 16:56:32;;;;;;;25.10;13.07;;;;;9.60;101542.00;;;;10286347;28;20224;-75
2023/11/21 17:01:33;;;;;;;25.10;13.27;;;;;9.60;101554.00;;;;10309223;28;20231;-74
2023/11/21 17:06:35;;;;;;;27.57;13.87;;;;;9.60;101572.00;;;;10297197;28;20289;-75
2023/11/21 17:11:37;;;;;;;22.97;13.43;;;;;9.60;101575.00;;;;10317029;28;20906;-75
2023/11/21 17:16:40;;;;;;;21.67;13.83;;;;;9.60;101587.00;;;;10332055;28;20224;-74
2023/11/21 17:21:41;;;;;;;28.53;15.10;;;;;9.60;101589.00;;;;10294742;28;20278;-74
2023/11/21 17:26:43;;;;;;;26.90;14.40;;;;;9.60;101591.00;;;;10308510;28;20298;-75
2023/11/21 17:31:44;;;;;;;24.13;14.53;;;;;9.60;101617.00;;;;10311762;28;20222;-75
2023/11/21 17:36:46;;;;;;;31.13;15.77;;;;;9.60;101625.00;;;;10313159;28;20220;-75
2023/11/21 17:41:47;;;;;;;30.10;15.50;;;;;9.60;101631.00;;;;10303458;28;20281;-75
2023/11/21 17:46:51;;;;;;;31.20;15.20;;;;;9.60;101639.00;;;;10311949;28;20281;-76
2023/11/21 17:51:56;;;;;;;30.57;15.17;;;;;9.60;101655.00;;;;10309573;28;20274;-74
2023/11/21 17:57:03;;;;;;;35.50;19.37;;;;;9.60;101654.00;;;;10306569;28;20224;-74
2023/11/21 18:02:11;;;;;;;39.47;20.20;;;;;9.60;101662.00;;;;10308006;28;20219;-74
2023/11/21 18:07:12;;;;;;;39.17;19.97;;;;;9.60;101671.00;;;;10322368;28;20816;-74
2023/11/21 18:12:16;;;;;;;36.40;20.40;;;;;9.50;101684.00;;;;10336404;28;20231;-75
2023/11/21 18:17:19;;;;;;;40.70;21.83;;;;;9.50;101686.00;;;;10310060;28;20216;-74
2023/11/21 18:22:25;;;;;;;39.67;20.97;;;;;9.50;101687.00;;;;10313804;28;20238;-74
2023/11/21 18:27:29;;;;;;;39.53;21.43;;;;;9.60;101695.00;;;;10300427;28;20235;-74
2023/11/21 18:32:30;;;;;;;39.93;22.93;;;;;9.50;101710.00;;;;10291488;28;20227;-74
2023/11/21 18:37:32;;;;;;;40.83;21.43;;;;;9.50;101728.00;;;;10312014;28;20224;-74
2023/11/21 18:42:33;;;;;;;34.50;19.70;;;;;9.50;101733.00;;;;10300813;28;20935;-73
2023/11/21 18:47:34;;;;;;;38.20;24.13;;;;;9.50;101735.00;;;;10297101;28;20306;-73
2023/11/21 18:52:35;;;;;;;28.47;17.40;;;;;9.50;101742.00;;;;10308634;28;20236;-74
2023/11/21 18:57:36;;;;;;;29.30;16.70;;;;;9.50;101746.00;;;;10318339;28;20847;-73
2023/11/21 19:02:39;;;;;;;29.33;17.80;;;;;9.40;101756.00;;;;10301327;28;20270;-74
2023/11/21 19:07:41;;;;;;;32.77;18.93;;;;;9.40;101764.00;;;;10285444;28;20875;-73
2023/11/21 19:12:42;;;;;;;35.07;19.20;;;;;9.30;101779.00;;;;10291653;28;20249;-73
2023/11/21 19:17:43;;;;;;;37.10;18.23;;;;;9.30;101795.00;;;;10297543;28;20301;-74
2023/11/21 19:22:45;;;;;;;37.60;19.50;;;;;9.20;101795.00;;;;10289721;28;20223;-73
2023/11/21 19:27:48;;;;;;;40.80;19.57;;;;;9.20;101799.00;;;;10302182;28;20804;-74
2023/11/21 19:32:49;;;;;;;50.67;23.73;;;;;9.20;101813.00;;;;10306432;28;20338;-74
2023/11/21 19:37:51;;;;;;;49.40;23.60;;;;;9.10;101823.00;;;;10300917;28;20270;-73
2023/11/21 19:42:53;;;;;;;40.23;20.13;;;;;9.10;101838.00;;;;10307713;28;20262;-73
2023/11/21 19:47:54;;;;;;;47.37;23.47;;;;;9.00;101844.00;;;;10307468;28;20231;-73
2023/11/21 19:52:55;;;;;;;43.20;21.07;;;;;8.90;101850.00;;;;10316573;28;20863;-73
2023/11/21 19:57:56;;;;;;;42.60;20.77;;;;;8.80;101864.00;;;;10313941;28;20227;-73
2023/11/21 20:02:57;;;;;;;37.67;20.70;;;;;8.80;101876.00;;;;10318325;28;21220;-73
2023/11/21 20:07:59;;;;;;;36.00;20.17;;;;;8.60;101888.00;;;;10318173;28;20271;-73
2023/11/21 20:13:00;;;;;;;36.57;21.03;;;;;8.50;101892.00;;;;10306964;28;21213;-73
2023/11/21 20:18:07;;;;;;;33.97;20.43;;;;;8.40;101892.00;;;;10295120;28;20232;-73
2023/11/21 20:23:08;;;;;;;31.40;19.63;;;;;8.30;101901.00;;;;10315604;28;20610;-73
2023/11/21 20:28:09;;;;;;;38.67;21.43;;;;;8.30;101898.00;;;;10322253;28;20247;-73
2023/11/21 20:33:11;;;;;;;33.03;21.00;;;;;8.20;101921.00;;;;10317608;28;20251;-73
2023/11/21 20:38:13;;;;;;;36.23;21.73;;;;;8.20;101925.00;;;;10313601;28;20282;-73
2023/11/21 20:43:14;;;;;;;34.00;20.37;;;;;8.10;101932.00;;;;10309901;28;20314;-73
2023/11/21 20:48:15;;;;;;;31.97;20.40;;;;;7.90;101930.00;;;;10316242;28;20215;-72
2023/11/21 20:53:18;;;;;;;34.87;21.47;;;;;7.70;101937.00;;;;10298476;28;20597;-73
2023/11/21 20:58:19;;;;;;;36.17;22.90;;;;;7.60;101945.00;;;;10316553;28;20219;-73
2023/11/21 21:03:21;;;;;;;34.17;22.73;;;;;7.50;101962.00;;;;10302259;28;20267;-73
2023/11/21 21:08:25;;;;;;;32.47;22.07;;;;;7.30;101967.00;;;;10314331;28;20240;-72
2023/11/21 21:13:26;;;;;;;32.50;22.47;;;;;7.10;101966.00;;;;10316113;28;20805;-73
2023/11/21 21:18:28;;;;;;;30.87;20.10;;;;;7.00;101974.00;;;;10314289;28;20220;-73
2023/11/21 21:23:29;;;;;;;34.70;23.00;;;;;6.80;101980.00;;;;10312879;28;20254;-73
2023/11/21 21:28:30;;;;;;;35.40;22.73;;;;;6.70;101982.00;;;;10319047;28;20303;-72
2023/11/21 21:33:32;;;;;;;35.90;23.37;;;;;6.70;101989.00;;;;10294784;28;20688;-73
2023/11/21 21:38:33;;;;;;;44.00;25.13;;;;;6.70;102002.00;;;;10306144;28;20314;-72
2023/11/21 21:43:34;;;;;;;42.40;26.27;;;;;6.70;102016.00;;;;10318236;28;20948;-73
2023/11/21 21:48:35;;;;;;;37.37;25.03;;;;;6.60;102017.00;;;;10317428;28;20227;-73
2023/11/21 21:53:37;;;;;;;37.80;23.27;;;;;6.60;102040.00;;;;10315023;28;20230;-73
2023/11/21 21:58:38;;;;;;;38.07;24.33;;;;;6.40;102042.00;;;;10312964;28;20286;-75
2023/11/21 22:03:39;;;;;;;35.67;23.20;;;;;6.20;102051.00;;;;10312732;28;20219;-75
2023/11/21 22:08:41;;;;;;;38.03;24.33;;;;;6.10;102061.00;;;;10321583;28;20220;-75
2023/11/21 22:13:42;;;;;;;37.70;23.50;;;;;5.90;102058.00;;;;10313646;28;20315;-75
2023/11/21 22:18:43;;;;;;;34.43;23.27;;;;;5.80;102073.00;;;;10317014;28;20351;-73
2023/11/21 22:23:44;;;;;;;35.47;22.90;;;;;5.70;102084.00;;;;10315605;28;20294;-73
2023/11/21 22:28:45;;;;;;;35.53;23.37;;;;;5.60;102094.00;;;;10313797;28;20315;-73
2023/11/21 22:33:46;;;;;;;37.10;23.57;;;;;5.50;102105.00;;;;10315990;28;20238;-73
2023/11/21 22:38:47;;;;;;;36.83;22.90;;;;;5.50;102094.00;;;;10315188;28;20263;-73
2023/11/21 22:43:49;;;;;;;38.43;25.00;;;;;5.40;102093.00;;;;10304927;28;20231;-73
2023/11/21 22:48:50;;;;;;;37.87;21.83;;;;;5.30;102115.00;;;;10308719;28;20239;-73
2023/11/21 22:53:51;;;;;;;37.63;23.20;;;;;5.30;102120.00;;;;10316660;28;20268;-73
2023/11/21 22:58:52;;;;;;;41.90;23.60;;;;;5.20;102112.00;;;;10308657;28;20231;-72
2023/11/21 23:03:55;;;;;;;33.53;22.17;;;;;5.10;102119.00;;;;10309569;28;20219;-72
2023/11/21 23:08:56;;;;;;;37.80;22.47;;;;;5.00;102111.00;;;;10313667;28;20721;-73
2023/11/21 23:13:57;;;;;;;38.87;22.47;;;;;5.00;102115.00;;;;10312839;28;20235;-73
2023/11/21 23:18:58;;;;;;;43.10;24.00;;;;;4.90;102119.00;;;;10315998;28;20219;-73
2023/11/21 23:24:06;;;;;;;41.60;23.27;;;;;4.90;102133.00;;;;10317884;28;20215;-73
2023/11/21 23:29:08;;;;;;;47.80;27.13;;;;;4.80;102129.00;;;;10297740;28;20240;-72
2023/11/21 23:34:11;;;;;;;43.77;23.20;;;;;4.80;102133.00;;;;10342022;28;20236;-73
2023/11/21 23:39:14;;;;;;;39.37;24.43;;;;;4.70;102137.00;;;;10323431;28;20220;-73
2023/11/21 23:44:16;;;;;;;43.40;26.77;;;;;4.70;102145.00;;;;10323439;28;20231;-74
2023/11/21 23:49:18;;;;;;;42.47;24.63;;;;;4.70;102148.00;;;;10325432;28;20379;-71
2023/11/21 23:54:20;;;;;;;37.63;23.67;;;;;4.60;102155.00;;;;10312149;28;20303;-73
2023/11/21 23:59:21;;;;;;;39.87;22.73;;;;;4.50;102161.00;;;;10319368;28;20224;-73
